Kortenaken, Belgium
Current Conditions -  °F | °C
As of 3:17 PM on Sunday 25 Jan 2015 (Local Time) from EBDT Reporting Station
Broken Clouds Broken Clouds  
Wind Chill: 37°   Ceiling: 7000
Heat Index: 37°   Visibility: 5mi
Dew Point: 36°   Wind: 3mph
Humidity: 93%   Direction: 210°SSW
Pressure: 30.39"   Gusts: NA
Location:  50.91°N, 5.06°E
Report Text: EBDT 251417Z AUTO 21003KT 8000 FEW010/// BKN070/// 03/02 Q1029 BLU
Loading
Personal Weather Stations






























Interactive Weather Map New forecast layout! Learn more

10-Day Weather Forecast

Advertisements
Track Severe Weather on mobile